createdAt,value
2018-08-31T00:00:22.036Z,75.00
2018-08-31T00:00:57.239Z,75.00
2018-08-31T00:01:32.679Z,75.00
2018-08-31T00:02:07.926Z,75.00
2018-08-31T00:02:43.684Z,75.00
2018-08-31T00:03:18.848Z,97.10
2018-08-31T00:03:54.266Z,347.82
2018-08-31T00:04:29.896Z,346.59
2018-08-31T00:05:05.137Z,348.57
2018-08-31T00:05:40.792Z,346.59
2018-08-31T00:06:16.125Z,25.04
2018-08-31T00:06:51.564Z,120.00
2018-08-31T00:07:26.990Z,120.00
2018-08-31T00:08:02.018Z,120.00
2018-08-31T00:08:37.543Z,120.00
2018-08-31T00:09:12.848Z,120.00
2018-08-31T00:09:47.986Z,120.00
2018-08-31T00:10:23.309Z,127.97
2018-08-31T00:10:58.822Z,210.00
2018-08-31T00:11:34.270Z,210.00
2018-08-31T00:12:09.613Z,210.00
2018-08-31T00:12:44.817Z,42.14
2018-08-31T00:13:20.127Z,59.80
2018-08-31T00:13:55.703Z,255.00
2018-08-31T00:14:31.139Z,249.58
2018-08-31T00:15:06.597Z,250.25
2018-08-31T00:15:42.016Z,255.00
2018-08-31T00:16:17.487Z,76.32
2018-08-31T00:16:52.977Z,75.72
2018-08-31T00:17:28.300Z,210.00
2018-08-31T00:18:03.630Z,210.00
2018-08-31T00:18:39.263Z,166.94
2018-08-31T00:19:14.508Z,347.91
2018-08-31T00:19:49.826Z,251.63
2018-08-31T00:20:24.954Z,255.00
2018-08-31T00:21:00.359Z,224.30
2018-08-31T00:21:35.826Z,255.00
2018-08-31T00:22:11.126Z,252.34
2018-08-31T00:22:46.744Z,228.18
2018-08-31T00:23:21.957Z,255.00
2018-08-31T00:23:57.298Z,105.70
2018-08-31T00:24:32.624Z,191.39
2018-08-31T00:25:08.249Z,210.00
2018-08-31T00:25:43.700Z,210.00
2018-08-31T00:26:19.326Z,210.00
2018-08-31T00:26:54.554Z,210.00
2018-08-31T00:27:29.590Z,210.00
2018-08-31T00:28:04.920Z,210.00
2018-08-31T00:28:39.934Z,244.55
2018-08-31T00:29:15.218Z,255.00
2018-08-31T00:29:50.598Z,219.70
2018-08-31T00:30:26.029Z,114.64
2018-08-31T00:31:01.284Z,30.00
2018-08-31T00:31:36.612Z,90.30
2018-08-31T00:32:12.233Z,8.49
2018-08-31T00:32:47.427Z,192.84
2018-08-31T00:33:22.686Z,210.00
2018-08-31T00:33:58.114Z,210.00
2018-08-31T00:34:33.818Z,210.00
2018-08-31T00:35:09.084Z,210.00
2018-08-31T00:35:45.002Z,215.59
2018-08-31T00:36:20.566Z,243.46
2018-08-31T00:36:55.799Z,32.66
2018-08-31T00:37:31.321Z,30.00
2018-08-31T00:38:06.625Z,30.00
2018-08-31T00:38:41.845Z,30.00
2018-08-31T00:39:17.054Z,307.96
2018-08-31T00:39:52.211Z,255.00
2018-08-31T00:40:27.407Z,255.00
2018-08-31T00:41:02.744Z,255.00
2018-08-31T00:41:38.704Z,255.00
2018-08-31T00:42:14.238Z,101.37
2018-08-31T00:42:49.481Z,175.06
2018-08-31T00:43:24.766Z,210.00
2018-08-31T00:44:00.032Z,222.81
2018-08-31T00:44:35.140Z,210.00
2018-08-31T00:45:10.562Z,210.00
2018-08-31T00:45:45.990Z,210.00
2018-08-31T00:46:21.038Z,210.00
2018-08-31T00:46:56.335Z,210.00
2018-08-31T00:47:31.443Z,210.00
2018-08-31T00:48:06.896Z,210.00
2018-08-31T00:48:42.354Z,210.00
2018-08-31T00:49:17.675Z,210.00
2018-08-31T00:49:52.960Z,210.00
2018-08-31T00:50:28.497Z,210.00
2018-08-31T00:51:03.920Z,99.65
2018-08-31T00:51:39.284Z,213.99
2018-08-31T00:52:14.466Z,210.00
2018-08-31T00:52:49.621Z,210.00
2018-08-31T00:53:25.142Z,100.90
2018-08-31T00:54:00.664Z,28.24
2018-08-31T00:54:36.131Z,210.00
2018-08-31T00:55:11.722Z,235.34
2018-08-31T00:55:47.156Z,210.00
2018-08-31T00:56:22.271Z,210.00
2018-08-31T00:56:57.617Z,75.00
2018-08-31T00:57:32.738Z,75.00
2018-08-31T00:58:08.258Z,75.00
2018-08-31T00:58:43.235Z,75.00
2018-08-31T00:59:18.873Z,75.00
2018-08-31T00:59:54.191Z,75.00
2018-08-31T01:00:29.395Z,75.00
2018-08-31T01:01:04.659Z,75.00
2018-08-31T01:01:40.059Z,75.00
2018-08-31T01:02:15.369Z,75.00
2018-08-31T01:02:50.802Z,75.00
2018-08-31T01:03:26.242Z,75.00
2018-08-31T01:04:01.557Z,75.00
2018-08-31T01:04:37.003Z,75.00
2018-08-31T01:05:12.581Z,75.00
2018-08-31T01:05:47.847Z,75.00
2018-08-31T01:06:23.513Z,75.00
2018-08-31T01:06:58.718Z,75.00
2018-08-31T01:07:34.082Z,75.00
2018-08-31T01:08:09.501Z,75.00
2018-08-31T01:08:44.952Z,75.00
2018-08-31T01:09:20.254Z,75.00
2018-08-31T01:09:55.589Z,75.00
2018-08-31T01:10:30.924Z,75.00
2018-08-31T01:11:06.260Z,75.00
2018-08-31T01:11:41.517Z,75.00
2018-08-31T01:12:16.932Z,75.00
2018-08-31T01:12:52.845Z,75.00
2018-08-31T01:13:28.136Z,75.00
2018-08-31T01:14:03.771Z,75.00
2018-08-31T01:14:39.053Z,75.00
2018-08-31T01:15:14.502Z,75.00
2018-08-31T01:15:49.991Z,75.00
2018-08-31T01:16:25.378Z,75.00
2018-08-31T01:17:00.773Z,75.00
2018-08-31T01:17:35.985Z,75.00
2018-08-31T01:18:11.380Z,75.00
2018-08-31T01:18:46.808Z,75.00
2018-08-31T01:19:22.137Z,75.00
2018-08-31T01:19:57.338Z,75.00
2018-08-31T01:20:32.762Z,75.00
2018-08-31T01:21:08.049Z,75.00
2018-08-31T01:21:43.389Z,75.00
2018-08-31T01:22:18.778Z,75.00
2018-08-31T01:22:54.122Z,75.00
2018-08-31T01:23:29.423Z,75.00
2018-08-31T01:24:04.778Z,75.00
2018-08-31T01:24:39.922Z,75.00
2018-08-31T01:25:15.311Z,75.00
2018-08-31T01:25:50.623Z,75.00
2018-08-31T01:26:25.942Z,75.00
2018-08-31T01:27:01.179Z,75.00
2018-08-31T01:27:36.293Z,75.00
2018-08-31T01:28:11.607Z,75.00
2018-08-31T01:28:47.063Z,75.00
2018-08-31T01:29:22.293Z,75.00
2018-08-31T01:29:57.509Z,75.00
2018-08-31T01:30:32.804Z,75.00
2018-08-31T01:31:08.108Z,75.00
2018-08-31T01:31:43.557Z,75.00
2018-08-31T01:32:18.786Z,75.00
2018-08-31T01:32:53.873Z,75.00
2018-08-31T01:33:29.183Z,75.00
2018-08-31T01:34:04.510Z,75.00
2018-08-31T01:34:39.931Z,75.00
2018-08-31T01:35:15.430Z,75.00
2018-08-31T01:35:50.783Z,75.00
2018-08-31T01:36:26.336Z,75.00
2018-08-31T01:37:01.687Z,75.00
2018-08-31T01:37:37.109Z,75.00
2018-08-31T01:38:12.391Z,75.00
2018-08-31T01:38:48.020Z,75.00
2018-08-31T01:39:23.235Z,75.00
2018-08-31T01:39:58.445Z,75.00
2018-08-31T01:40:33.736Z,75.00
2018-08-31T01:41:08.986Z,75.00
2018-08-31T01:41:44.222Z,75.00
2018-08-31T01:42:19.636Z,75.00
2018-08-31T01:42:55.190Z,75.00
2018-08-31T01:43:30.177Z,75.00
2018-08-31T01:44:05.640Z,75.00
2018-08-31T01:44:40.957Z,75.00
2018-08-31T01:45:16.189Z,75.00
2018-08-31T01:45:51.794Z,75.00
2018-08-31T01:46:27.260Z,75.00
2018-08-31T01:47:02.591Z,75.00
2018-08-31T01:47:38.208Z,75.00
2018-08-31T01:48:13.462Z,75.00
2018-08-31T01:48:49.082Z,75.00
2018-08-31T01:49:24.344Z,75.00
2018-08-31T01:49:59.655Z,75.00
2018-08-31T01:50:35.193Z,75.00
2018-08-31T01:51:10.813Z,75.00
2018-08-31T01:51:46.408Z,75.00
2018-08-31T01:52:22.170Z,75.00
2018-08-31T01:52:57.574Z,75.00
2018-08-31T01:53:32.996Z,106.57
2018-08-31T01:54:08.229Z,255.00
2018-08-31T01:54:43.556Z,255.00
2018-08-31T01:55:18.717Z,255.00
2018-08-31T01:55:54.156Z,255.00
2018-08-31T01:56:29.531Z,255.00
2018-08-31T01:57:04.731Z,255.00
2018-08-31T01:57:40.494Z,255.00
2018-08-31T01:58:15.604Z,166.32
2018-08-31T01:58:50.833Z,165.00
2018-08-31T01:59:25.942Z,165.00
2018-08-31T02:00:01.103Z,165.00
2018-08-31T02:00:36.496Z,165.00
2018-08-31T02:01:11.946Z,165.00
2018-08-31T02:01:47.347Z,165.00
2018-08-31T02:02:22.687Z,165.00
2018-08-31T02:02:57.915Z,165.00
2018-08-31T02:03:33.219Z,104.21
2018-08-31T02:04:08.939Z,75.00
2018-08-31T02:04:44.369Z,75.00
2018-08-31T02:05:19.625Z,91.89
2018-08-31T02:05:55.116Z,165.00
2018-08-31T02:06:30.905Z,165.00
2018-08-31T02:07:06.616Z,42.63
2018-08-31T02:07:41.965Z,203.49
2018-08-31T02:08:17.409Z,210.00
2018-08-31T02:08:52.816Z,210.00
2018-08-31T02:09:28.132Z,210.00
2018-08-31T02:10:03.135Z,215.42
2018-08-31T02:10:38.397Z,255.00
2018-08-31T02:11:14.183Z,255.00
2018-08-31T02:11:49.296Z,261.23
2018-08-31T02:12:24.724Z,272.17
2018-08-31T02:13:00.248Z,249.58
2018-08-31T02:13:35.484Z,212.28
2018-08-31T02:14:10.626Z,63.83
2018-08-31T02:14:45.767Z,189.62
2018-08-31T02:15:21.089Z,193.24
2018-08-31T02:15:56.443Z,157.00
2018-08-31T02:16:31.957Z,120.00
2018-08-31T02:17:07.283Z,120.00
2018-08-31T02:17:42.398Z,120.00
2018-08-31T02:18:17.927Z,120.00
2018-08-31T02:18:53.243Z,165.15
2018-08-31T02:19:28.361Z,210.00
2018-08-31T02:20:03.697Z,210.00
2018-08-31T02:20:39.091Z,210.00
2018-08-31T02:21:14.545Z,210.00
2018-08-31T02:21:49.735Z,210.00
2018-08-31T02:22:24.880Z,210.00
2018-08-31T02:23:00.385Z,210.00
2018-08-31T02:23:35.719Z,210.00
2018-08-31T02:24:11.052Z,210.00
2018-08-31T02:24:46.695Z,210.00
2018-08-31T02:25:22.035Z,210.00
2018-08-31T02:25:57.184Z,210.00
2018-08-31T02:26:32.329Z,210.00
2018-08-31T02:27:07.532Z,210.00
2018-08-31T02:27:42.952Z,210.00
2018-08-31T02:28:18.555Z,210.00
2018-08-31T02:28:53.678Z,210.00
2018-08-31T02:29:28.787Z,210.00
2018-08-31T02:30:04.027Z,210.00
2018-08-31T02:30:39.519Z,210.00
2018-08-31T02:31:14.981Z,210.00
2018-08-31T02:31:50.314Z,210.00
2018-08-31T02:32:25.716Z,210.00
2018-08-31T02:33:01.064Z,39.68
2018-08-31T02:33:36.084Z,30.00
2018-08-31T02:34:11.435Z,30.00
2018-08-31T02:34:47.032Z,30.00
2018-08-31T02:35:22.185Z,30.00
2018-08-31T02:35:57.574Z,30.00
2018-08-31T02:36:32.945Z,30.00
2018-08-31T02:37:08.342Z,30.00
2018-08-31T02:37:43.788Z,30.00
2018-08-31T02:38:19.124Z,30.00
2018-08-31T02:38:54.436Z,30.00
2018-08-31T02:39:29.921Z,30.00
2018-08-31T02:40:05.322Z,30.00
2018-08-31T02:40:41.081Z,30.00
2018-08-31T02:41:16.606Z,30.00
2018-08-31T02:41:51.859Z,30.00
2018-08-31T02:42:26.976Z,30.00
2018-08-31T02:43:02.585Z,30.00
2018-08-31T02:43:37.900Z,30.00
2018-08-31T02:44:13.708Z,30.00
2018-08-31T02:44:48.926Z,30.00
2018-08-31T02:45:24.204Z,30.00
2018-08-31T02:45:59.338Z,30.00
2018-08-31T02:46:34.675Z,30.00
2018-08-31T02:47:10.022Z,30.00
2018-08-31T02:47:45.145Z,30.00
2018-08-31T02:48:20.766Z,30.00
2018-08-31T02:48:56.061Z,30.00
2018-08-31T02:49:31.378Z,30.00
2018-08-31T02:50:06.724Z,76.80
2018-08-31T02:50:42.037Z,120.00
2018-08-31T02:51:17.510Z,120.00
2018-08-31T02:51:52.713Z,120.00
2018-08-31T02:52:28.143Z,120.00
2018-08-31T02:53:03.260Z,130.93
2018-08-31T02:53:38.801Z,255.00
2018-08-31T02:54:14.249Z,255.00
2018-08-31T02:54:49.700Z,169.49
2018-08-31T02:55:25.060Z,165.00
2018-08-31T02:56:00.463Z,165.00
2018-08-31T02:56:35.639Z,165.00
2018-08-31T02:57:10.837Z,212.66
2018-08-31T02:57:46.197Z,210.00
2018-08-31T02:58:21.597Z,210.00
2018-08-31T02:58:57.278Z,210.00
2018-08-31T02:59:32.490Z,210.00
2018-08-31T03:00:07.630Z,210.00
2018-08-31T03:00:43.031Z,210.00
2018-08-31T03:01:18.503Z,210.00
2018-08-31T03:01:53.743Z,210.00
2018-08-31T03:02:29.138Z,200.78
2018-08-31T03:03:04.577Z,222.18
2018-08-31T03:03:39.883Z,208.55
2018-08-31T03:04:15.310Z,210.00
2018-08-31T03:04:50.801Z,210.00
2018-08-31T03:05:26.062Z,210.00
2018-08-31T03:06:01.462Z,210.00
2018-08-31T03:06:36.623Z,209.28
2018-08-31T03:07:12.076Z,30.00
2018-08-31T03:07:47.073Z,30.00
2018-08-31T03:08:22.112Z,37.59
2018-08-31T03:08:57.530Z,75.00
2018-08-31T03:09:32.855Z,75.00
2018-08-31T03:10:08.240Z,188.26
2018-08-31T03:10:43.456Z,135.63
2018-08-31T03:11:18.802Z,32.05
2018-08-31T03:11:54.146Z,118.68
2018-08-31T03:12:29.369Z,134.29
2018-08-31T03:13:04.504Z,104.21
2018-08-31T03:13:39.626Z,194.82
2018-08-31T03:14:14.949Z,210.00
2018-08-31T03:14:50.292Z,210.00
2018-08-31T03:15:25.999Z,210.00
2018-08-31T03:16:01.312Z,210.00
2018-08-31T03:16:36.430Z,210.00
2018-08-31T03:17:11.886Z,210.00
2018-08-31T03:17:47.196Z,114.58
2018-08-31T03:18:22.839Z,120.00
2018-08-31T03:18:58.002Z,120.00
2018-08-31T03:19:33.208Z,120.00
2018-08-31T03:20:08.642Z,120.00
2018-08-31T03:20:43.725Z,238.87
2018-08-31T03:21:18.983Z,255.00
2018-08-31T03:21:54.481Z,255.00
2018-08-31T03:22:29.633Z,255.00
2018-08-31T03:23:04.830Z,255.00
2018-08-31T03:23:40.155Z,255.00
2018-08-31T03:24:15.660Z,255.00
2018-08-31T03:24:50.886Z,161.90
2018-08-31T03:25:26.116Z,210.00
2018-08-31T03:26:01.561Z,210.00
2018-08-31T03:26:36.664Z,210.00
2018-08-31T03:27:11.771Z,210.00
2018-08-31T03:27:47.182Z,210.00
2018-08-31T03:28:22.284Z,210.00
2018-08-31T03:28:57.599Z,210.00
2018-08-31T03:29:32.816Z,210.00
2018-08-31T03:30:08.162Z,210.00
2018-08-31T03:30:43.455Z,210.00
2018-08-31T03:31:19.007Z,210.00
2018-08-31T03:31:54.472Z,210.00
2018-08-31T03:32:29.793Z,210.00
2018-08-31T03:33:05.028Z,227.16
2018-08-31T03:33:40.512Z,255.00
2018-08-31T03:34:15.820Z,255.00
2018-08-31T03:34:51.438Z,255.00
2018-08-31T03:35:27.005Z,255.00
2018-08-31T03:36:02.208Z,255.00
2018-08-31T03:36:37.481Z,256.80
2018-08-31T03:37:12.797Z,30.00
2018-08-31T03:37:48.186Z,30.00
2018-08-31T03:38:23.604Z,216.73
2018-08-31T03:38:58.930Z,255.00
2018-08-31T03:39:34.261Z,255.00
2018-08-31T03:40:09.588Z,255.00
2018-08-31T03:40:45.448Z,255.00
2018-08-31T03:41:20.796Z,255.00
2018-08-31T03:41:56.285Z,255.00
2018-08-31T03:42:31.611Z,255.00
2018-08-31T03:43:06.914Z,255.00
2018-08-31T03:43:42.473Z,255.00
2018-08-31T03:44:17.788Z,255.00
2018-08-31T03:44:53.230Z,255.00
2018-08-31T03:45:28.363Z,255.00
2018-08-31T03:46:03.617Z,255.00
2018-08-31T03:46:39.069Z,255.00
2018-08-31T03:47:14.179Z,255.00
2018-08-31T03:47:49.479Z,255.00
2018-08-31T03:48:25.003Z,255.00
2018-08-31T03:49:00.247Z,255.00
2018-08-31T03:49:35.865Z,255.00
2018-08-31T03:50:11.116Z,255.00
2018-08-31T03:50:46.639Z,255.00
2018-08-31T03:51:22.177Z,255.00
2018-08-31T03:51:57.577Z,255.00
2018-08-31T03:52:32.817Z,255.00
2018-08-31T03:53:08.049Z,255.00
2018-08-31T03:53:43.391Z,255.00
2018-08-31T03:54:18.852Z,255.00
2018-08-31T03:54:54.047Z,255.00
2018-08-31T03:55:29.375Z,255.00
2018-08-31T03:56:04.677Z,255.00
2018-08-31T03:56:40.148Z,255.00
2018-08-31T03:57:15.560Z,255.00
2018-08-31T03:57:51.017Z,255.00
2018-08-31T03:58:26.311Z,255.00
2018-08-31T03:59:01.840Z,255.00
2018-08-31T03:59:37.473Z,255.00
2018-08-31T04:00:12.526Z,255.00
2018-08-31T04:00:48.079Z,255.00
2018-08-31T04:01:23.431Z,255.00
2018-08-31T04:01:58.883Z,255.00
2018-08-31T04:02:34.329Z,255.00
2018-08-31T04:03:09.663Z,255.00
2018-08-31T04:03:45.167Z,284.86
2018-08-31T04:04:20.589Z,255.00
2018-08-31T04:04:56.079Z,255.00
2018-08-31T04:05:31.306Z,67.79
2018-08-31T04:06:06.571Z,75.00
2018-08-31T04:06:41.715Z,75.00
2018-08-31T04:07:17.161Z,75.00
2018-08-31T04:07:52.624Z,75.00
2018-08-31T04:08:28.050Z,75.00
2018-08-31T04:09:03.347Z,75.00
2018-08-31T04:09:39.078Z,75.00
2018-08-31T04:10:14.378Z,75.00
2018-08-31T04:10:49.739Z,75.00
2018-08-31T04:11:25.136Z,75.00
2018-08-31T04:12:00.227Z,75.00
2018-08-31T04:12:35.453Z,75.00
2018-08-31T04:13:10.770Z,75.00
2018-08-31T04:13:45.978Z,75.00
2018-08-31T04:14:21.161Z,75.00
2018-08-31T04:14:56.687Z,75.00
2018-08-31T04:15:32.050Z,75.00
2018-08-31T04:16:07.520Z,72.59
2018-08-31T04:16:43.008Z,278.27
2018-08-31T04:17:18.140Z,255.00
2018-08-31T04:17:53.589Z,255.00
2018-08-31T04:18:28.979Z,253.68
2018-08-31T04:19:04.213Z,240.11
2018-08-31T04:19:39.648Z,255.00
2018-08-31T04:20:14.802Z,235.62
2018-08-31T04:20:50.005Z,120.00
2018-08-31T04:21:25.441Z,120.00
2018-08-31T04:22:00.823Z,120.00
2018-08-31T04:22:36.554Z,20.28
2018-08-31T04:23:12.082Z,227.78
2018-08-31T04:23:47.314Z,210.00
2018-08-31T04:24:22.741Z,41.28
2018-08-31T04:24:58.171Z,30.00
2018-08-31T04:25:33.890Z,30.00
2018-08-31T04:26:09.608Z,30.00
2018-08-31T04:26:45.252Z,30.00
2018-08-31T04:27:20.439Z,229.77
2018-08-31T04:27:55.855Z,30.71
2018-08-31T04:28:31.172Z,165.00
2018-08-31T04:29:06.502Z,165.00
2018-08-31T04:29:41.965Z,165.00
2018-08-31T04:30:17.699Z,165.00
2018-08-31T04:30:53.257Z,165.00
2018-08-31T04:31:28.674Z,165.00
2018-08-31T04:32:04.037Z,165.00
2018-08-31T04:32:39.230Z,165.00
2018-08-31T04:33:14.660Z,165.00
2018-08-31T04:33:50.056Z,165.00
2018-08-31T04:34:25.368Z,165.00
2018-08-31T04:35:00.711Z,165.00
2018-08-31T04:35:35.938Z,165.00
2018-08-31T04:36:11.923Z,165.00
2018-08-31T04:36:47.342Z,165.00
2018-08-31T04:37:22.762Z,165.00
2018-08-31T04:37:58.253Z,165.00
2018-08-31T04:38:33.989Z,178.92
2018-08-31T04:39:09.190Z,49.27
2018-08-31T04:39:44.712Z,30.00
2018-08-31T04:40:20.132Z,30.00
2018-08-31T04:40:55.755Z,30.00
2018-08-31T04:41:31.203Z,30.00
2018-08-31T04:42:06.309Z,30.00
2018-08-31T04:42:41.500Z,30.00
2018-08-31T04:43:16.973Z,332.33
2018-08-31T04:43:52.301Z,165.00
2018-08-31T04:44:27.415Z,165.00
2018-08-31T04:45:02.726Z,246.82
2018-08-31T04:45:38.070Z,300.00
2018-08-31T04:46:13.291Z,300.00
2018-08-31T04:46:48.633Z,300.00
2018-08-31T04:47:23.826Z,300.00
2018-08-31T04:47:59.043Z,300.00
2018-08-31T04:48:34.748Z,59.92
2018-08-31T04:49:10.507Z,75.00
2018-08-31T04:49:45.759Z,75.00
2018-08-31T04:50:21.124Z,75.00
2018-08-31T04:50:56.447Z,261.83
2018-08-31T04:51:31.696Z,255.00
2018-08-31T04:52:06.921Z,255.00
2018-08-31T04:52:42.042Z,255.00
2018-08-31T04:53:17.393Z,255.00
2018-08-31T04:53:52.830Z,255.00
2018-08-31T04:54:27.988Z,276.96
2018-08-31T04:55:03.392Z,300.00
2018-08-31T04:55:38.722Z,212.79
2018-08-31T04:56:14.035Z,38.14
2018-08-31T04:56:49.378Z,29.46
2018-08-31T04:57:24.705Z,246.56
2018-08-31T04:57:59.908Z,255.00
2018-08-31T04:58:35.141Z,255.00
2018-08-31T04:59:10.745Z,255.00
2018-08-31T04:59:46.254Z,308.55
2018-08-31T05:00:21.667Z,172.32
2018-08-31T05:00:57.089Z,165.00
2018-08-31T05:01:32.506Z,165.00
2018-08-31T05:02:07.711Z,90.45
2018-08-31T05:02:43.098Z,131.17
2018-08-31T05:03:18.429Z,205.01
2018-08-31T05:03:53.856Z,186.25
2018-08-31T05:04:29.481Z,255.00
2018-08-31T05:05:05.093Z,255.00
2018-08-31T05:05:40.811Z,255.00
2018-08-31T05:06:16.103Z,255.00
2018-08-31T05:06:51.590Z,255.00
2018-08-31T05:07:26.938Z,255.00
2018-08-31T05:08:02.138Z,255.00
2018-08-31T05:08:37.764Z,282.54
2018-08-31T05:09:12.871Z,96.99
2018-08-31T05:09:48.501Z,255.00
2018-08-31T05:10:23.939Z,255.00
2018-08-31T05:10:59.548Z,255.00
2018-08-31T05:11:34.907Z,255.00
2018-08-31T05:12:10.114Z,255.00
2018-08-31T05:12:45.516Z,255.00
2018-08-31T05:13:20.953Z,255.00
2018-08-31T05:13:56.208Z,210.00
2018-08-31T05:14:31.430Z,210.00
2018-08-31T05:15:06.968Z,210.00
2018-08-31T05:15:42.303Z,210.00
2018-08-31T05:16:17.835Z,210.00
2018-08-31T05:16:53.268Z,210.00
2018-08-31T05:17:28.671Z,210.00
2018-08-31T05:18:04.047Z,210.00
2018-08-31T05:18:39.266Z,175.45
2018-08-31T05:19:14.703Z,165.00
2018-08-31T05:19:49.928Z,165.00
2018-08-31T05:20:25.247Z,165.00
2018-08-31T05:21:00.463Z,165.00
2018-08-31T05:21:35.631Z,165.00
2018-08-31T05:22:11.183Z,165.00
2018-08-31T05:22:46.828Z,165.00
2018-08-31T05:23:22.059Z,169.02
2018-08-31T05:23:57.325Z,75.00
2018-08-31T05:24:32.395Z,75.00
2018-08-31T05:25:07.736Z,40.28
2018-08-31T05:25:42.787Z,25.88
2018-08-31T05:26:17.911Z,346.59
2018-08-31T05:26:53.326Z,346.90
2018-08-31T05:27:28.969Z,353.60
2018-08-31T05:28:04.285Z,120.00
2018-08-31T05:28:39.354Z,120.00
2018-08-31T05:29:14.992Z,120.00
2018-08-31T05:29:50.315Z,120.00
2018-08-31T05:30:25.741Z,250.29
2018-08-31T05:31:00.971Z,255.00
2018-08-31T05:31:36.781Z,255.00
2018-08-31T05:32:11.919Z,245.30
2018-08-31T05:32:47.057Z,210.00
2018-08-31T05:33:22.564Z,210.00
2018-08-31T05:33:57.642Z,193.13
2018-08-31T05:34:33.241Z,65.84
2018-08-31T05:35:08.754Z,75.00
2018-08-31T05:35:44.184Z,75.00
2018-08-31T05:36:19.463Z,75.00
2018-08-31T05:36:54.741Z,75.00
2018-08-31T05:37:30.450Z,75.00
2018-08-31T05:38:05.696Z,242.13
2018-08-31T05:38:41.090Z,255.00
2018-08-31T05:39:16.599Z,255.00
2018-08-31T05:39:51.983Z,255.00
2018-08-31T05:40:27.724Z,228.68
2018-08-31T05:41:02.819Z,210.00
2018-08-31T05:41:38.258Z,210.00
2018-08-31T05:42:13.280Z,210.00
2018-08-31T05:42:48.501Z,210.00
2018-08-31T05:43:24.210Z,210.00
2018-08-31T05:43:59.470Z,210.00
2018-08-31T05:44:34.680Z,210.00
2018-08-31T05:45:10.190Z,210.00
2018-08-31T05:45:45.409Z,210.00
2018-08-31T05:46:20.811Z,210.00
2018-08-31T05:46:56.341Z,210.00
2018-08-31T05:47:31.766Z,210.00
2018-08-31T05:48:07.009Z,210.00
2018-08-31T05:48:42.218Z,210.00
2018-08-31T05:49:17.574Z,210.00
2018-08-31T05:49:53.083Z,210.00
2018-08-31T05:50:28.755Z,210.00
2018-08-31T05:51:03.961Z,210.00
2018-08-31T05:51:39.293Z,210.00
2018-08-31T05:52:14.716Z,210.00
2018-08-31T05:52:50.100Z,210.00
2018-08-31T05:53:25.565Z,210.00
2018-08-31T05:54:00.870Z,255.00
2018-08-31T05:54:36.122Z,255.00
2018-08-31T05:55:11.332Z,255.00
2018-08-31T05:55:46.963Z,225.64
2018-08-31T05:56:22.328Z,217.25
2018-08-31T05:56:58.028Z,75.00
2018-08-31T05:57:33.571Z,75.00
2018-08-31T05:58:08.954Z,75.00
2018-08-31T05:58:44.294Z,75.00
2018-08-31T05:59:19.475Z,75.00
2018-08-31T05:59:55.358Z,222.26
2018-08-31T06:00:30.493Z,99.08
2018-08-31T06:01:05.847Z,75.00
2018-08-31T06:01:41.093Z,75.00
2018-08-31T06:02:16.583Z,352.61
2018-08-31T06:02:51.717Z,348.57
2018-08-31T06:03:27.017Z,344.01
2018-08-31T06:04:02.553Z,221.28
2018-08-31T06:04:38.043Z,117.82
2018-08-31T06:05:13.272Z,120.00
2018-08-31T06:05:48.677Z,38.06
2018-08-31T06:06:24.176Z,75.00
2018-08-31T06:06:59.743Z,75.00
2018-08-31T06:07:34.831Z,75.00
2018-08-31T06:08:10.059Z,105.79
2018-08-31T06:08:45.460Z,255.00
2018-08-31T06:09:20.674Z,255.00
2018-08-31T06:09:55.964Z,230.99
2018-08-31T06:10:31.201Z,210.72
2018-08-31T06:11:06.900Z,210.00
2018-08-31T06:11:42.364Z,210.00
2018-08-31T06:12:17.540Z,210.00
2018-08-31T06:12:52.899Z,210.00
2018-08-31T06:13:28.162Z,210.00
2018-08-31T06:14:03.176Z,210.00
2018-08-31T06:14:38.405Z,210.00
2018-08-31T06:15:13.601Z,210.00
2018-08-31T06:15:49.053Z,210.00
2018-08-31T06:16:24.311Z,210.00
2018-08-31T06:16:59.522Z,210.00
2018-08-31T06:17:37.219Z,210.00
2018-08-31T06:18:13.060Z,210.00
2018-08-31T06:18:48.573Z,26.74
2018-08-31T06:19:24.007Z,27.88
2018-08-31T06:19:59.326Z,219.03
2018-08-31T06:20:34.864Z,210.00
2018-08-31T06:21:10.241Z,210.00
2018-08-31T06:21:45.712Z,210.00
2018-08-31T06:22:21.335Z,210.00
2018-08-31T06:22:56.754Z,210.00
2018-08-31T06:23:32.182Z,120.00
2018-08-31T06:24:07.367Z,132.69
2018-08-31T06:24:42.713Z,117.34
2018-08-31T06:25:18.033Z,120.00
2018-08-31T06:25:53.327Z,159.58
2018-08-31T06:26:28.714Z,188.27
2018-08-31T06:27:04.092Z,142.42
2018-08-31T06:27:39.310Z,120.00
2018-08-31T06:28:14.423Z,160.04
2018-08-31T06:28:49.844Z,157.01
2018-08-31T06:29:25.046Z,160.73
2018-08-31T06:30:00.477Z,210.00
2018-08-31T06:30:36.047Z,205.95
2018-08-31T06:31:11.371Z,30.00
2018-08-31T06:31:46.706Z,136.46
2018-08-31T06:32:21.914Z,255.00
2018-08-31T06:32:57.349Z,319.65
2018-08-31T06:33:32.553Z,354.72
2018-08-31T06:34:07.988Z,193.50
2018-08-31T06:34:43.488Z,239.97
2018-08-31T06:35:18.937Z,195.29
2018-08-31T06:35:54.448Z,195.86
2018-08-31T06:36:30.562Z,125.88
2018-08-31T06:37:07.102Z,210.00
2018-08-31T06:37:42.394Z,216.98
2018-08-31T06:38:17.815Z,210.00
2018-08-31T06:38:53.434Z,210.00
2018-08-31T06:39:28.719Z,210.00
2018-08-31T06:40:03.957Z,210.00
2018-08-31T06:40:39.386Z,70.01
2018-08-31T06:41:14.587Z,106.14
2018-08-31T06:41:50.019Z,118.50
2018-08-31T06:42:25.366Z,237.02
2018-08-31T06:43:00.559Z,243.42
2018-08-31T06:43:35.797Z,74.58
2018-08-31T06:44:11.014Z,146.16
2018-08-31T06:44:46.230Z,139.33
2018-08-31T06:45:21.443Z,156.21
2018-08-31T06:45:56.673Z,195.77
2018-08-31T06:46:32.223Z,162.29
2018-08-31T06:47:07.579Z,218.39
2018-08-31T06:47:42.900Z,213.24
2018-08-31T06:48:18.225Z,76.52
2018-08-31T06:48:53.556Z,234.05
2018-08-31T06:49:28.793Z,1.50
2018-08-31T06:50:04.035Z,226.12
2018-08-31T06:50:39.523Z,219.03
2018-08-31T06:51:15.066Z,210.00
2018-08-31T06:51:50.520Z,210.00
2018-08-31T06:52:25.783Z,186.96
2018-08-31T06:53:01.322Z,210.00
2018-08-31T06:53:36.929Z,199.41
2018-08-31T06:54:12.194Z,188.65
2018-08-31T06:54:47.425Z,214.03
2018-08-31T06:55:22.951Z,207.34
2018-08-31T06:55:58.172Z,210.70
2018-08-31T06:56:33.529Z,223.03
2018-08-31T06:57:08.845Z,196.57
2018-08-31T06:57:44.281Z,14.58
2018-08-31T06:58:19.483Z,211.92
2018-08-31T06:58:54.812Z,238.43
2018-08-31T06:59:30.421Z,167.86
2018-08-31T07:00:05.644Z,157.96
2018-08-31T07:00:41.978Z,212.66
2018-08-31T07:01:17.197Z,224.14
2018-08-31T07:01:52.938Z,229.76
2018-08-31T07:02:28.428Z,200.10
2018-08-31T07:03:03.847Z,212.47
2018-08-31T07:03:38.891Z,202.83
2018-08-31T07:04:14.412Z,255.00
2018-08-31T07:04:50.044Z,255.00
2018-08-31T07:05:25.499Z,258.29
2018-08-31T07:06:01.207Z,30.00
2018-08-31T07:06:36.427Z,135.05
2018-08-31T07:07:11.893Z,50.37
2018-08-31T07:07:47.196Z,90.28
2018-08-31T07:08:22.629Z,165.00
2018-08-31T07:08:58.059Z,147.17
2018-08-31T07:09:33.296Z,94.06
2018-08-31T07:10:08.715Z,165.00
2018-08-31T07:10:43.834Z,83.70
2018-08-31T07:11:19.194Z,80.39
2018-08-31T07:11:54.451Z,210.00
2018-08-31T07:12:30.009Z,240.11
2018-08-31T07:13:05.291Z,180.12
2018-08-31T07:13:40.342Z,246.64
2018-08-31T07:14:15.942Z,141.51
2018-08-31T07:14:51.649Z,75.00
2018-08-31T07:15:26.863Z,84.15
2018-08-31T07:16:02.213Z,165.00
2018-08-31T07:16:37.567Z,165.00
2018-08-31T07:17:13.196Z,186.38
2018-08-31T07:17:48.612Z,106.28
2018-08-31T07:18:24.048Z,248.71
2018-08-31T07:18:59.391Z,197.85
2018-08-31T07:19:34.727Z,244.42
2018-08-31T07:20:10.065Z,205.58
2018-08-31T07:20:45.276Z,3.16
2018-08-31T07:21:20.452Z,76.32
2018-08-31T07:21:55.725Z,243.64
2018-08-31T07:22:30.975Z,74.62
2018-08-31T07:23:06.398Z,64.48
2018-08-31T07:23:42.019Z,21.64
2018-08-31T07:24:17.459Z,120.00
2018-08-31T07:24:52.862Z,186.86
2018-08-31T07:25:28.692Z,235.35
2018-08-31T07:26:04.113Z,162.09